Flight Briefing for CPX369

Departure Arrival
Daniel K Inouye International Airport (PHNL)
Click to view FAA NOTAMS
March Air Reserve Base (KRIV)
Click to view FAA NOTAMS
Departure Time Arrival Time
N/A N/A
Aircraft Distance
B767-300BDSF 2277nm
Departure METAR Arrival METAR
PHNL 230653Z 05003KT 10SM FEW036 27/21 A3004 RMK AO2 SLP170 T02720206 $ KRIV 230658Z 13004KT 10SM SCT037 09/09 A2984 RMK AO2A SLP101 T00900090
Suggested Route
MKK4 FITES R578 FICKY ROSIN MALIT OCN


View recent IFR Routes data
Notes



Charts and Procedures

Charts for PHNL
No chart available
Charts for KRIV
No chart available

Windy.com Weather Map